Time;durP1;ratioP1;P1;durP2;ratioP2;P2;SDS_P1;SDS_P2;PMS_P1;PMS_P2;Temp;Humidity;BMP_temperature;BMP_pressure;BME280_temperature;BME280_humidity;BME280_pressure;Samples;Min_cycle;Max_cycle;Signal;HPM_P1;HPM_P2
2022/05/14 00:01:56;;;;;;;;;;;11.00;99.90;;;;;;5064236;28;20008;-70
2022/05/14 00:04:22;;;;;;;;;;;11.00;99.90;;;;;;5031444;28;19953;-70
2022/05/14 00:06:47;;;;;;;;;;;11.00;99.90;;;;;;5031024;28;19923;-70
2022/05/14 00:09:13;;;;;;;;;;;10.90;99.90;;;;;;5045512;28;19971;-71
2022/05/14 00:14:23;;;;;;;;;;;11.00;99.90;;;;;;5033779;28;19944;-70
2022/05/14 00:16:49;;;;;;;;;;;11.00;99.90;;;;;;5028487;28;20309;-70
2022/05/14 00:19:14;;;;;;;;;;;11.00;99.90;;;;;;5015081;28;19910;-70
2022/05/14 00:21:43;;;;;;;;;;;10.90;99.90;;;;;;5029435;28;20500;-70
2022/05/14 00:24:08;;;;;;;;;;;10.90;99.90;;;;;;5036140;28;20185;-70
2022/05/14 00:26:35;;;;;;;;;;;10.90;99.90;;;;;;5031382;28;19957;-70
2022/05/14 00:29:01;;;;;;;;;;;10.90;99.90;;;;;;5025233;28;19924;-70
2022/05/14 00:31:27;;;;;;;;;;;10.90;99.90;;;;;;5036138;28;19917;-70
2022/05/14 00:33:52;;;;;;;;;;;10.90;99.90;;;;;;5036271;28;19932;-70
2022/05/14 00:36:18;;;;;;;;;;;10.80;99.90;;;;;;5066874;28;19916;-70
2022/05/14 00:38:43;;;;;;;;;;;10.70;99.90;;;;;;5034046;28;20024;-70
2022/05/14 00:41:09;;;;;;;;;;;10.70;99.90;;;;;;5060872;28;20004;-70
2022/05/14 00:43:46;;;;;;;;;;;10.60;99.90;;;;;;5035670;28;19963;-72
2022/05/14 00:46:45;;;;;;;;;;;10.60;99.90;;;;;;5035783;28;19916;-70
2022/05/14 00:49:11;;;;;;;;;;;10.60;99.90;;;;;;4995276;28;19913;-71
2022/05/14 00:51:38;;;;;;;;;;;10.60;99.90;;;;;;5020975;28;20307;-70
2022/05/14 00:54:08;;;;;;;;;;;10.60;99.90;;;;;;5036235;28;19964;-70
2022/05/14 00:56:36;;;;;;;;;;;10.50;99.90;;;;;;5034231;28;19944;-70
2022/05/14 00:59:07;;;;;;;;;;;10.60;99.90;;;;;;5021960;28;19921;-70
2022/05/14 01:01:33;;;;;;;;;;;10.60;99.90;;;;;;5031184;28;20205;-70
2022/05/14 01:03:58;;;;;;;;;;;10.60;99.90;;;;;;5035991;28;20261;-71
2022/05/14 01:06:25;;;;;;;;;;;10.60;99.90;;;;;;5032880;28;19949;-70
2022/05/14 01:08:50;;;;;;;;;;;10.60;99.90;;;;;;5027793;28;19914;-70
2022/05/14 01:11:16;;;;;;;;;;;10.50;99.90;;;;;;5015716;28;19921;-70
2022/05/14 01:13:42;;;;;;;;;;;10.60;99.90;;;;;;5032188;28;19932;-70
2022/05/14 01:16:08;;;;;;;;;;;10.50;99.90;;;;;;5035305;28;19913;-70
2022/05/14 01:18:35;;;;;;;;;;;10.50;99.90;;;;;;5021737;28;19944;-70
2022/05/14 01:21:18;;;;;;;;;;;10.60;99.90;;;;;;5014568;28;20308;-72
2022/05/14 01:26:48;;;;;;;;;;;10.60;99.90;;;;;;4992537;28;19963;-70
2022/05/14 01:29:16;;;;;;;;;;;10.60;99.90;;;;;;5016130;28;19913;-70
2022/05/14 01:31:42;;;;;;;;;;;10.60;99.90;;;;;;5015032;28;19922;-70
2022/05/14 01:34:12;;;;;;;;;;;10.60;99.90;;;;;;5032095;28;19959;-70
2022/05/14 01:36:38;;;;;;;;;;;10.50;99.90;;;;;;5069123;28;20019;-70
2022/05/14 01:39:05;;;;;;;;;;;10.50;99.90;;;;;;5038263;28;19916;-70
2022/05/14 01:41:31;;;;;;;;;;;10.50;99.90;;;;;;5037916;28;19928;-70
2022/05/14 01:43:56;;;;;;;;;;;10.40;99.90;;;;;;5035232;28;19913;-70
2022/05/14 01:46:22;;;;;;;;;;;10.40;99.90;;;;;;5038907;28;20193;-70
2022/05/14 01:48:48;;;;;;;;;;;10.40;99.90;;;;;;5039179;28;20259;-70
2022/05/14 01:51:14;;;;;;;;;;;10.40;99.90;;;;;;5039145;28;19912;-70
2022/05/14 01:53:40;;;;;;;;;;;10.50;99.90;;;;;;5068735;28;19959;-70
2022/05/14 01:56:05;;;;;;;;;;;10.40;99.90;;;;;;5036974;28;19917;-70
2022/05/14 01:58:37;;;;;;;;;;;10.40;99.90;;;;;;5037127;28;19921;-70
2022/05/14 02:01:14;;;;;;;;;;;10.30;99.90;;;;;;5038683;28;19913;-71
2022/05/14 02:03:42;;;;;;;;;;;10.30;99.90;;;;;;5069219;28;19916;-70
2022/05/14 02:06:08;;;;;;;;;;;10.20;99.90;;;;;;5067671;28;19921;-70
2022/05/14 02:08:33;;;;;;;;;;;10.20;99.90;;;;;;5037684;28;19913;-70
2022/05/14 02:10:59;;;;;;;;;;;10.20;99.90;;;;;;5038193;28;19909;-70
2022/05/14 02:13:26;;;;;;;;;;;10.30;99.90;;;;;;5038134;28;19922;-70
2022/05/14 02:15:52;;;;;;;;;;;10.30;99.90;;;;;;5037026;28;19928;-70
2022/05/14 02:18:19;;;;;;;;;;;10.30;99.90;;;;;;5036519;28;19960;-70
2022/05/14 02:20:44;;;;;;;;;;;10.30;99.90;;;;;;5038033;28;19909;-70
2022/05/14 02:23:12;;;;;;;;;;;10.30;99.90;;;;;;5038279;28;19909;-70
2022/05/14 02:25:37;;;;;;;;;;;10.30;99.90;;;;;;5029155;28;19963;-70
2022/05/14 02:28:03;;;;;;;;;;;10.30;99.90;;;;;;5057186;28;19999;-70
2022/05/14 02:30:29;;;;;;;;;;;10.30;99.90;;;;;;5037896;28;19909;-70
2022/05/14 02:32:54;;;;;;;;;;;10.20;99.90;;;;;;5038046;28;19958;-70
2022/05/14 02:35:20;;;;;;;;;;;10.20;99.90;;;;;;5036776;28;20008;-71
2022/05/14 02:37:46;;;;;;;;;;;10.20;99.90;;;;;;5037843;28;19924;-70
2022/05/14 02:40:12;;;;;;;;;;;10.10;99.90;;;;;;5054370;28;19921;-70
2022/05/14 02:42:37;;;;;;;;;;;10.10;99.90;;;;;;5024721;28;19909;-71
2022/05/14 02:45:03;;;;;;;;;;;10.10;99.90;;;;;;5036357;28;20316;-70
2022/05/14 02:47:30;;;;;;;;;;;10.10;99.90;;;;;;5032990;28;19971;-70
2022/05/14 02:49:56;;;;;;;;;;;10.00;99.90;;;;;;5034698;28;20008;-70
2022/05/14 02:52:23;;;;;;;;;;;9.90;99.90;;;;;;5036435;28;19964;-70
2022/05/14 02:54:49;;;;;;;;;;;9.90;99.90;;;;;;5033977;28;19909;-70
2022/05/14 02:57:15;;;;;;;;;;;9.80;99.90;;;;;;5031261;28;19924;-70
2022/05/14 02:59:40;;;;;;;;;;;9.80;99.90;;;;;;5035252;28;19913;-72
2022/05/14 03:02:06;;;;;;;;;;;9.70;99.90;;;;;;5022981;28;19913;-70
2022/05/14 03:04:36;;;;;;;;;;;9.80;99.90;;;;;;5036918;28;19916;-70
2022/05/14 03:07:03;;;;;;;;;;;9.90;99.90;;;;;;5031439;28;20320;-70
2022/05/14 03:09:28;;;;;;;;;;;9.90;99.90;;;;;;5021496;28;19944;-70
2022/05/14 03:11:54;;;;;;;;;;;9.90;99.90;;;;;;5033320;28;20293;-70
2022/05/14 03:14:20;;;;;;;;;;;10.00;99.90;;;;;;5068690;28;20008;-70
2022/05/14 03:16:45;;;;;;;;;;;10.00;99.90;;;;;;5031187;28;19952;-72
2022/05/14 03:19:11;;;;;;;;;;;9.90;99.90;;;;;;5031816;28;19956;-70
2022/05/14 03:21:37;;;;;;;;;;;9.90;99.90;;;;;;5035034;28;19928;-70
2022/05/14 03:24:03;;;;;;;;;;;9.70;99.90;;;;;;5034853;28;20197;-70
2022/05/14 03:26:29;;;;;;;;;;;9.70;99.90;;;;;;5032198;28;19913;-70
2022/05/14 03:28:55;;;;;;;;;;;9.70;99.90;;;;;;5034258;28;20227;-71
2022/05/14 03:31:20;;;;;;;;;;;9.70;99.90;;;;;;5034519;28;19917;-70
2022/05/14 03:33:46;;;;;;;;;;;9.70;99.90;;;;;;5034821;28;20011;-70
2022/05/14 03:36:11;;;;;;;;;;;9.70;99.90;;;;;;5034192;28;19925;-70
2022/05/14 03:38:37;;;;;;;;;;;9.70;99.90;;;;;;5031770;28;19921;-71
2022/05/14 03:41:03;;;;;;;;;;;9.70;99.90;;;;;;5034628;28;19917;-70
2022/05/14 03:43:30;;;;;;;;;;;9.60;99.90;;;;;;5033753;28;19920;-73
2022/05/14 03:45:56;;;;;;;;;;;9.60;99.90;;;;;;5034379;28;19999;-70
2022/05/14 03:48:21;;;;;;;;;;;9.60;99.90;;;;;;5032679;28;20000;-70
2022/05/14 03:50:47;;;;;;;;;;;9.60;99.90;;;;;;5065126;28;19912;-70
2022/05/14 03:53:13;;;;;;;;;;;9.60;99.90;;;;;;5036612;28;19913;-70
2022/05/14 03:55:38;;;;;;;;;;;9.70;99.90;;;;;;5034775;28;19959;-70
2022/05/14 03:58:04;;;;;;;;;;;9.60;99.90;;;;;;5064133;28;20271;-71
2022/05/14 04:00:30;;;;;;;;;;;9.60;99.90;;;;;;5034971;28;20197;-73
2022/05/14 04:02:56;;;;;;;;;;;9.70;99.90;;;;;;5068541;28;19913;-71
2022/05/14 04:05:21;;;;;;;;;;;9.70;99.90;;;;;;5036316;28;19924;-70
2022/05/14 04:07:47;;;;;;;;;;;9.80;99.90;;;;;;5032338;28;19917;-70
2022/05/14 04:10:13;;;;;;;;;;;9.80;99.90;;;;;;5032951;28;19920;-70
2022/05/14 04:12:39;;;;;;;;;;;9.80;99.90;;;;;;5036344;28;20000;-71
2022/05/14 04:15:05;;;;;;;;;;;9.80;99.90;;;;;;5068267;28;19917;-70
2022/05/14 04:17:31;;;;;;;;;;;9.90;99.90;;;;;;5034068;28;19921;-72
2022/05/14 04:19:57;;;;;;;;;;;9.90;99.90;;;;;;5023124;28;19917;-70
2022/05/14 04:22:22;;;;;;;;;;;9.90;99.90;;;;;;5016288;28;19909;-70
2022/05/14 04:24:48;;;;;;;;;;;10.00;99.90;;;;;;5016158;28;19917;-70
2022/05/14 04:27:13;;;;;;;;;;;10.00;99.90;;;;;;5016346;28;19910;-70
2022/05/14 04:29:39;;;;;;;;;;;10.00;99.90;;;;;;5028180;28;19913;-70
2022/05/14 04:32:05;;;;;;;;;;;10.00;99.90;;;;;;5048146;28;19913;-71
2022/05/14 04:34:30;;;;;;;;;;;10.10;99.90;;;;;;5016008;28;19913;-70
2022/05/14 04:36:56;;;;;;;;;;;10.10;99.90;;;;;;5020470;28;19972;-71
2022/05/14 04:39:31;;;;;;;;;;;10.10;99.90;;;;;;5027143;28;20368;-70
2022/05/14 04:42:05;;;;;;;;;;;10.10;99.90;;;;;;5028802;28;20311;-70
2022/05/14 04:44:31;;;;;;;;;;;10.20;99.90;;;;;;5022295;28;19920;-70
2022/05/14 04:46:57;;;;;;;;;;;10.30;99.90;;;;;;5025581;28;19917;-71
2022/05/14 04:49:23;;;;;;;;;;;10.30;99.90;;;;;;5018816;28;19913;-70
2022/05/14 04:51:48;;;;;;;;;;;10.30;99.90;;;;;;5020734;28;19917;-70
2022/05/14 04:54:14;;;;;;;;;;;10.40;99.90;;;;;;5018389;28;19952;-70
2022/05/14 04:56:40;;;;;;;;;;;10.50;99.90;;;;;;5024225;28;19913;-70
2022/05/14 04:59:05;;;;;;;;;;;10.60;99.90;;;;;;5027034;28;19919;-72
2022/05/14 05:01:31;;;;;;;;;;;10.60;99.90;;;;;;5031419;28;20319;-70
2022/05/14 05:03:57;;;;;;;;;;;10.70;99.90;;;;;;5028938;28;20348;-70
2022/05/14 05:06:23;;;;;;;;;;;10.80;99.90;;;;;;5031783;28;19940;-70
2022/05/14 05:08:51;;;;;;;;;;;10.80;99.90;;;;;;5060357;28;20311;-73
2022/05/14 05:11:20;;;;;;;;;;;10.90;99.90;;;;;;5033508;28;20300;-70
2022/05/14 05:13:46;;;;;;;;;;;11.00;99.90;;;;;;5031613;28;20205;-70
2022/05/14 05:16:11;;;;;;;;;;;11.20;99.90;;;;;;5028768;28;19922;-72
2022/05/14 05:18:37;;;;;;;;;;;11.20;99.90;;;;;;5029899;28;20209;-70
2022/05/14 05:21:04;;;;;;;;;;;11.30;99.90;;;;;;5055008;28;19971;-70
2022/05/14 05:23:29;;;;;;;;;;;11.30;99.90;;;;;;5027235;28;20000;-70
2022/05/14 05:25:56;;;;;;;;;;;11.30;99.90;;;;;;5022734;28;20063;-71
2022/05/14 05:28:22;;;;;;;;;;;11.40;99.90;;;;;;5032157;28;19921;-70
2022/05/14 05:30:48;;;;;;;;;;;11.50;99.90;;;;;;5029233;28;20422;-70
2022/05/14 05:33:23;;;;;;;;;;;11.50;99.90;;;;;;5028874;28;19920;-70
2022/05/14 05:35:49;;;;;;;;;;;11.50;99.90;;;;;;5032543;28;20010;-70
2022/05/14 05:38:14;;;;;;;;;;;11.60;99.90;;;;;;5016322;28;19944;-70
2022/05/14 05:40:41;;;;;;;;;;;11.70;99.90;;;;;;5025962;28;19991;-70
2022/05/14 05:43:07;;;;;;;;;;;11.80;99.90;;;;;;5061506;28;19923;-70
2022/05/14 05:45:33;;;;;;;;;;;11.90;99.90;;;;;;5032209;28;19917;-70
2022/05/14 05:47:58;;;;;;;;;;;11.90;99.90;;;;;;5032511;28;19919;-70
2022/05/14 05:50:24;;;;;;;;;;;12.10;99.90;;;;;;5033167;28;19919;-70
2022/05/14 05:52:51;;;;;;;;;;;12.10;99.90;;;;;;5031163;28;20213;-69
2022/05/14 05:58:01;;;;;;;;;;;12.20;99.90;;;;;;5030584;28;19983;-74
2022/05/14 06:00:28;;;;;;;;;;;12.30;99.90;;;;;;5030812;28;20271;-70
2022/05/14 06:02:54;;;;;;;;;;;12.30;99.90;;;;;;5025510;28;19917;-70
2022/05/14 06:05:20;;;;;;;;;;;12.30;99.90;;;;;;5031414;28;19913;-73
2022/05/14 06:07:46;;;;;;;;;;;12.50;99.90;;;;;;5031837;28;19913;-70
2022/05/14 06:10:12;;;;;;;;;;;12.50;99.90;;;;;;5033163;28;20303;-70
2022/05/14 06:12:38;;;;;;;;;;;12.60;99.90;;;;;;5031450;28;19917;-70
2022/05/14 06:15:08;;;;;;;;;;;12.60;99.90;;;;;;5032811;28;19913;-70
2022/05/14 06:17:34;;;;;;;;;;;12.70;99.90;;;;;;5033020;28;19921;-70
2022/05/14 06:19:59;;;;;;;;;;;12.80;99.90;;;;;;5034532;28;19923;-70
2022/05/14 06:22:25;;;;;;;;;;;12.90;99.90;;;;;;5037021;28;19917;-70
2022/05/14 06:24:50;;;;;;;;;;;13.10;99.90;;;;;;5036153;28;20628;-70
2022/05/14 06:27:16;;;;;;;;;;;13.10;99.90;;;;;;5036494;28;20746;-70
2022/05/14 06:29:41;;;;;;;;;;;13.20;99.90;;;;;;5036374;28;19921;-70
2022/05/14 06:32:07;;;;;;;;;;;13.40;99.90;;;;;;5036745;28;19916;-70
2022/05/14 06:34:32;;;;;;;;;;;13.50;99.90;;;;;;5035403;28;19993;-70
2022/05/14 06:36:58;;;;;;;;;;;13.60;99.90;;;;;;5036153;28;19913;-70
2022/05/14 06:39:24;;;;;;;;;;;13.60;99.90;;;;;;5035683;28;19913;-70
2022/05/14 06:41:49;;;;;;;;;;;13.70;99.90;;;;;;5032216;28;19913;-70
2022/05/14 06:44:15;;;;;;;;;;;13.80;99.90;;;;;;5037841;28;19988;-70
2022/05/14 06:46:40;;;;;;;;;;;13.90;99.90;;;;;;5038061;28;19913;-70
2022/05/14 06:49:06;;;;;;;;;;;14.00;99.90;;;;;;5035486;28;19917;-73
2022/05/14 06:51:33;;;;;;;;;;;14.10;99.90;;;;;;5032925;28;19940;-70
2022/05/14 06:54:04;;;;;;;;;;;14.20;99.90;;;;;;5033945;28;19921;-70
2022/05/14 06:56:32;;;;;;;;;;;14.30;99.90;;;;;;5034527;28;20270;-71
2022/05/14 06:58:58;;;;;;;;;;;14.40;99.90;;;;;;5034011;28;19924;-70
2022/05/14 07:01:23;;;;;;;;;;;14.60;99.90;;;;;;5034289;28;19996;-70
2022/05/14 07:06:40;;;;;;;;;;;15.20;99.90;;;;;;5035336;28;19920;-70
2022/05/14 07:09:07;;;;;;;;;;;15.50;99.90;;;;;;5034510;28;20021;-70
2022/05/14 07:11:34;;;;;;;;;;;15.70;99.90;;;;;;5034019;28;19917;-71
2022/05/14 07:14:00;;;;;;;;;;;15.70;99.90;;;;;;5033905;28;20324;-69
2022/05/14 07:16:26;;;;;;;;;;;15.90;99.90;;;;;;5033318;28;19917;-69
2022/05/14 07:18:52;;;;;;;;;;;16.20;99.90;;;;;;5032280;28;20347;-70
2022/05/14 07:21:18;;;;;;;;;;;16.20;99.90;;;;;;5034082;28;19917;-70
2022/05/14 07:23:43;;;;;;;;;;;16.40;99.90;;;;;;5034007;28;19913;-69
2022/05/14 07:26:10;;;;;;;;;;;16.70;99.90;;;;;;5033691;28;19929;-70
2022/05/14 07:28:36;;;;;;;;;;;17.00;99.90;;;;;;5031751;28;19986;-70
2022/05/14 07:31:02;;;;;;;;;;;17.30;99.90;;;;;;5032922;28;20205;-70
2022/05/14 07:33:28;;;;;;;;;;;17.60;99.90;;;;;;5019344;28;19917;-70
2022/05/14 07:35:54;;;;;;;;;;;17.80;99.90;;;;;;5030472;28;19918;-70
2022/05/14 07:38:20;;;;;;;;;;;18.00;99.90;;;;;;5022057;28;19928;-70
2022/05/14 07:40:46;;;;;;;;;;;18.30;99.90;;;;;;5016294;28;19921;-73
2022/05/14 07:43:21;;;;;;;;;;;18.60;99.90;;;;;;5016775;28;19922;-71
2022/05/14 07:45:52;;;;;;;;;;;18.90;99.90;;;;;;5025092;28;19917;-70
2022/05/14 07:48:24;;;;;;;;;;;19.30;99.90;;;;;;5036514;28;19912;-73
2022/05/14 07:50:50;;;;;;;;;;;19.40;99.90;;;;;;5030981;28;20219;-73
2022/05/14 07:53:17;;;;;;;;;;;19.50;99.90;;;;;;5036581;28;19909;-73
2022/05/14 07:55:43;;;;;;;;;;;19.70;99.90;;;;;;5035896;28;20326;-71
2022/05/14 07:58:09;;;;;;;;;;;19.40;99.90;;;;;;5027195;28;19944;-73
2022/05/14 08:00:34;;;;;;;;;;;19.10;99.90;;;;;;5017222;28;19925;-72
2022/05/14 08:03:00;;;;;;;;;;;18.80;99.90;;;;;;5048073;28;19914;-72
2022/05/14 08:05:26;;;;;;;;;;;19.00;99.90;;;;;;5030342;28;19986;-72
2022/05/14 08:07:51;;;;;;;;;;;19.20;99.90;;;;;;5030798;28;19925;-72
2022/05/14 08:10:17;;;;;;;;;;;19.40;99.90;;;;;;5023873;28;19924;-73
2022/05/14 08:12:44;;;;;;;;;;;19.60;99.90;;;;;;5031379;28;19925;-72
2022/05/14 08:15:11;;;;;;;;;;;19.80;99.90;;;;;;5017760;28;19961;-73
2022/05/14 08:17:36;;;;;;;;;;;19.30;98.80;;;;;;5032410;28;19933;-72
2022/05/14 08:20:02;;;;;;;;;;;19.00;99.90;;;;;;5068335;28;20254;-71
2022/05/14 08:25:12;;;;;;;;;;;19.80;99.90;;;;;;5034649;28;19923;-71
2022/05/14 08:27:47;;;;;;;;;;;19.30;99.90;;;;;;5034741;28;19909;-72
2022/05/14 08:30:26;;;;;;;;;;;19.80;99.90;;;;;;5014847;28;19914;-71
2022/05/14 08:32:52;;;;;;;;;;;19.70;98.60;;;;;;5015756;28;19917;-71
2022/05/14 08:35:18;;;;;;;;;;;19.80;99.20;;;;;;5015848;28;20257;-72
2022/05/14 08:37:44;;;;;;;;;;;20.00;99.90;;;;;;5066268;28;19932;-70
2022/05/14 08:40:14;;;;;;;;;;;19.80;99.40;;;;;;5033309;28;20374;-70
2022/05/14 08:42:40;;;;;;;;;;;20.00;99.40;;;;;;5035197;28;20246;-72
2022/05/14 08:45:06;;;;;;;;;;;19.80;99.50;;;;;;5065859;28;20000;-70
2022/05/14 08:47:34;;;;;;;;;;;20.30;98.20;;;;;;5021944;28;20015;-71
2022/05/14 08:50:01;;;;;;;;;;;20.50;98.70;;;;;;5016035;28;20212;-72
2022/05/14 08:52:28;;;;;;;;;;;19.90;98.20;;;;;;5016084;28;19917;-72
2022/05/14 08:54:58;;;;;;;;;;;20.30;97.90;;;;;;5016232;28;20224;-72
2022/05/14 08:57:44;;;;;;;;;;;20.60;99.30;;;;;;5065272;28;19917;-72
2022/05/14 09:00:10;;;;;;;;;;;20.80;99.90;;;;;;5026445;28;19917;-70
2022/05/14 09:02:37;;;;;;;;;;;20.80;99.90;;;;;;5034396;28;19963;-70
2022/05/14 09:05:11;;;;;;;;;;;20.80;98.50;;;;;;5032684;28;19910;-71
2022/05/14 09:07:37;;;;;;;;;;;21.10;98.70;;;;;;5027427;28;20008;-71
2022/05/14 09:10:04;;;;;;;;;;;21.30;98.00;;;;;;5028933;28;20275;-71
2022/05/14 09:12:32;;;;;;;;;;;21.90;96.10;;;;;;5021861;28;19917;-72
2022/05/14 09:15:04;;;;;;;;;;;21.40;96.50;;;;;;5026588;28;20189;-71
2022/05/14 09:17:31;;;;;;;;;;;21.30;97.00;;;;;;5023396;28;20312;-70
2022/05/14 09:19:57;;;;;;;;;;;21.00;96.90;;;;;;5021619;28;19921;-70
2022/05/14 09:22:23;;;;;;;;;;;20.90;99.00;;;;;;5035358;28;19909;-69
2022/05/14 09:24:50;;;;;;;;;;;21.00;97.80;;;;;;5034492;28;19921;-72
2022/05/14 09:27:21;;;;;;;;;;;20.70;98.40;;;;;;5032567;28;19913;-70
2022/05/14 09:29:47;;;;;;;;;;;20.10;98.50;;;;;;5029451;28;20266;-70
2022/05/14 09:32:22;;;;;;;;;;;20.30;98.70;;;;;;5027567;28;19909;-70
2022/05/14 09:34:48;;;;;;;;;;;20.70;99.20;;;;;;5029230;28;20324;-70
2022/05/14 09:37:19;;;;;;;;;;;21.00;97.80;;;;;;5020890;28;19925;-70
2022/05/14 09:39:56;;;;;;;;;;;20.90;97.80;;;;;;5031231;28;19909;-71
2022/05/14 09:42:24;;;;;;;;;;;20.80;97.40;;;;;;5033645;28;20315;-70
2022/05/14 09:44:50;;;;;;;;;;;21.10;99.60;;;;;;5030736;28;19959;-69
2022/05/14 09:47:30;;;;;;;;;;;21.20;98.40;;;;;;5032043;28;19913;-72
2022/05/14 09:50:07;;;;;;;;;;;20.90;98.50;;;;;;5027046;28;19913;-70
2022/05/14 09:52:33;;;;;;;;;;;21.30;99.50;;;;;;5029902;28;19917;-72
2022/05/14 09:55:01;;;;;;;;;;;21.60;98.20;;;;;;5034074;28;19913;-70
2022/05/14 09:57:33;;;;;;;;;;;22.30;96.50;;;;;;5034031;28;20282;-70
2022/05/14 10:00:18;;;;;;;;;;;23.20;96.10;;;;;;5037222;28;19952;-70
2022/05/14 10:02:44;;;;;;;;;;;23.50;95.00;;;;;;5038842;28;20303;-70
2022/05/14 10:05:28;;;;;;;;;;;24.00;94.90;;;;;;5036650;28;19917;-70
2022/05/14 10:07:56;;;;;;;;;;;24.20;95.40;;;;;;5036400;28;19932;-70
2022/05/14 10:10:25;;;;;;;;;;;24.40;93.50;;;;;;5033772;28;19987;-70
2022/05/14 10:12:50;;;;;;;;;;;23.80;93.00;;;;;;5034664;28;19921;-72
2022/05/14 10:15:19;;;;;;;;;;;24.30;95.10;;;;;;5059535;28;19917;-70
2022/05/14 10:17:59;;;;;;;;;;;24.90;93.10;;;;;;5033458;28;20012;-70
2022/05/14 10:20:36;;;;;;;;;;;25.30;92.70;;;;;;5027345;28;19913;-70
2022/05/14 10:28:53;;;;;;;;;;;24.20;92.60;;;;;;5037153;28;19915;-69
2022/05/14 10:31:33;;;;;;;;;;;24.50;91.60;;;;;;5040481;28;19960;-69
2022/05/14 10:34:03;;;;;;;;;;;24.10;92.10;;;;;;5036760;28;19967;-70
2022/05/14 10:36:34;;;;;;;;;;;23.30;92.20;;;;;;5036763;28;19913;-70
2022/05/14 10:39:13;;;;;;;;;;;23.20;94.00;;;;;;5032269;28;19913;-69
2022/05/14 10:41:47;;;;;;;;;;;23.50;91.70;;;;;;5028570;28;19920;-71
2022/05/14 10:44:30;;;;;;;;;;;23.60;93.40;;;;;;5034232;28;19909;-69
2022/05/14 10:47:00;;;;;;;;;;;23.70;94.10;;;;;;5034150;28;19928;-70
2022/05/14 10:49:29;;;;;;;;;;;23.30;93.70;;;;;;5030736;28;20263;-70
2022/05/14 10:51:55;;;;;;;;;;;22.60;93.30;;;;;;5029601;28;20016;-72
2022/05/14 10:54:22;;;;;;;;;;;22.00;93.20;;;;;;5026424;28;19917;-72
2022/05/14 10:56:54;;;;;;;;;;;22.00;94.00;;;;;;5029544;28;19917;-70
2022/05/14 10:59:33;;;;;;;;;;;21.80;93.80;;;;;;5018189;28;19917;-69
2022/05/14 11:02:01;;;;;;;;;;;22.10;94.60;;;;;;5025747;28;19957;-69
2022/05/14 11:04:36;;;;;;;;;;;21.80;94.20;;;;;;5033813;28;19913;-70
2022/05/14 11:07:02;;;;;;;;;;;21.10;95.30;;;;;;5031781;28;19919;-69
2022/05/14 11:09:30;;;;;;;;;;;20.90;95.70;;;;;;5014205;28;19913;-70
2022/05/14 11:11:57;;;;;;;;;;;21.10;95.40;;;;;;5029349;28;19967;-70
2022/05/14 11:14:35;;;;;;;;;;;21.00;95.80;;;;;;5030797;28;19925;-69
2022/05/14 11:17:01;;;;;;;;;;;20.80;94.90;;;;;;5033127;28;20304;-71
2022/05/14 11:19:31;;;;;;;;;;;20.70;96.10;;;;;;5031986;28;19925;-69
2022/05/14 11:21:57;;;;;;;;;;;20.70;96.20;;;;;;5025130;28;20016;-71
2022/05/14 11:24:43;;;;;;;;;;;20.70;96.90;;;;;;5025078;28;19917;-71
2022/05/14 11:27:09;;;;;;;;;;;20.70;95.50;;;;;;5013671;28;20220;-69
2022/05/14 11:29:49;;;;;;;;;;;20.70;95.70;;;;;;5032633;28;19962;-69
2022/05/14 11:32:19;;;;;;;;;;;20.40;96.50;;;;;;5032913;28;19952;-70
2022/05/14 11:34:55;;;;;;;;;;;20.60;97.80;;;;;;5033521;28;20000;-70
2022/05/14 11:37:27;;;;;;;;;;;20.50;95.60;;;;;;5033600;28;19917;-70
2022/05/14 11:40:02;;;;;;;;;;;20.90;96.60;;;;;;5029401;28;19921;-69
2022/05/14 11:42:29;;;;;;;;;;;21.30;95.00;;;;;;5033958;28;19939;-70
2022/05/14 11:45:01;;;;;;;;;;;22.10;96.00;;;;;;5036126;28;20223;-70
2022/05/14 11:47:30;;;;;;;;;;;22.60;93.40;;;;;;5036477;28;19909;-70
2022/05/14 11:49:57;;;;;;;;;;;23.20;94.30;;;;;;5025538;28;19913;-70
2022/05/14 11:52:25;;;;;;;;;;;23.20;93.10;;;;;;5029676;28;19917;-70
2022/05/14 11:55:07;;;;;;;;;;;23.30;92.00;;;;;;5023585;28;20305;-70
2022/05/14 11:57:50;;;;;;;;;;;23.20;92.70;;;;;;5028735;28;19924;-70
2022/05/14 12:00:17;;;;;;;;;;;23.70;92.80;;;;;;5036596;28;19913;-71
2022/05/14 12:02:55;;;;;;;;;;;23.20;93.40;;;;;;5026646;28;19917;-69
2022/05/14 12:05:20;;;;;;;;;;;22.80;92.60;;;;;;5020703;28;20000;-69
2022/05/14 12:07:49;;;;;;;;;;;22.80;93.20;;;;;;5033060;28;20008;-69
2022/05/14 12:10:20;;;;;;;;;;;22.60;93.80;;;;;;5035621;28;19959;-69
2022/05/14 12:13:05;;;;;;;;;;;22.60;94.40;;;;;;5064487;28;19917;-69
2022/05/14 12:15:31;;;;;;;;;;;22.40;92.70;;;;;;5035164;28;19948;-69
2022/05/14 12:17:57;;;;;;;;;;;22.00;93.90;;;;;;5034342;28;19951;-71
2022/05/14 12:20:25;;;;;;;;;;;21.50;93.70;;;;;;5032207;28;19916;-69
2022/05/14 12:22:56;;;;;;;;;;;21.20;94.20;;;;;;5031855;28;19924;-69
2022/05/14 12:25:32;;;;;;;;;;;21.10;94.60;;;;;;5035720;28;20141;-70
2022/05/14 12:27:58;;;;;;;;;;;21.10;94.60;;;;;;5032261;28;19925;-70
2022/05/14 12:33:18;;;;;;;;;;;20.80;95.40;;;;;;5027725;28;19924;-70
2022/05/14 12:35:51;;;;;;;;;;;21.00;95.90;;;;;;5036102;28;19951;-69
2022/05/14 12:38:20;;;;;;;;;;;21.10;94.50;;;;;;5026007;28;19924;-69
2022/05/14 12:40:46;;;;;;;;;;;20.80;95.10;;;;;;5015968;28;19944;-70
2022/05/14 12:43:13;;;;;;;;;;;20.70;95.00;;;;;;5028971;28;19917;-69
2022/05/14 12:45:40;;;;;;;;;;;20.60;95.60;;;;;;5035509;28;19913;-72
2022/05/14 12:48:07;;;;;;;;;;;20.80;96.00;;;;;;5035650;28;19920;-70
2022/05/14 12:50:33;;;;;;;;;;;20.90;94.70;;;;;;5029052;28;19913;-70
2022/05/14 12:52:58;;;;;;;;;;;21.10;94.20;;;;;;5036811;28;19913;-69
2022/05/14 12:55:26;;;;;;;;;;;21.30;95.20;;;;;;5055725;28;20418;-69
2022/05/14 12:57:52;;;;;;;;;;;21.40;93.50;;;;;;5055335;28;19924;-70
2022/05/14 13:00:20;;;;;;;;;;;21.70;93.40;;;;;;5039797;28;20232;-69
2022/05/14 13:02:46;;;;;;;;;;;22.40;93.30;;;;;;5034189;28;20028;-69
2022/05/14 13:05:20;;;;;;;;;;;22.90;93.60;;;;;;5033792;28;20316;-70
2022/05/14 13:07:51;;;;;;;;;;;23.10;91.90;;;;;;5034686;28;19917;-69
2022/05/14 13:10:19;;;;;;;;;;;22.90;93.00;;;;;;5033898;28;19920;-69
2022/05/14 13:12:48;;;;;;;;;;;22.60;92.90;;;;;;5035297;28;20265;-70
2022/05/14 13:15:13;;;;;;;;;;;22.20;93.50;;;;;;5027207;28;19914;-72
2022/05/14 13:17:40;;;;;;;;;;;21.90;93.30;;;;;;5015588;28;19984;-70
2022/05/14 13:20:08;;;;;;;;;;;21.60;93.50;;;;;;5033845;28;19952;-70
2022/05/14 13:22:41;;;;;;;;;;;21.20;94.60;;;;;;5033281;28;19914;-70
2022/05/14 13:25:27;;;;;;;;;;;20.90;94.20;;;;;;5035363;28;19978;-70
2022/05/14 13:27:53;;;;;;;;;;;20.60;95.50;;;;;;5026634;28;19917;-70
2022/05/14 13:30:28;;;;;;;;;;;20.70;94.90;;;;;;5031521;28;19914;-70
2022/05/14 13:33:06;;;;;;;;;;;20.40;95.60;;;;;;5038351;28;19916;-70
2022/05/14 13:38:17;;;;;;;;;;;20.80;95.30;;;;;;5032726;28;19975;-70
2022/05/14 13:40:45;;;;;;;;;;;20.60;95.70;;;;;;5031966;28;19917;-69
2022/05/14 13:43:10;;;;;;;;;;;20.50;97.00;;;;;;5030999;28;19913;-70
2022/05/14 13:45:56;;;;;;;;;;;20.20;95.20;;;;;;5032109;28;19917;-70
2022/05/14 13:48:37;;;;;;;;;;;20.20;96.30;;;;;;5036452;28;19917;-72
2022/05/14 13:51:08;;;;;;;;;;;20.30;96.50;;;;;;5035694;28;19917;-71
2022/05/14 13:53:36;;;;;;;;;;;20.40;96.00;;;;;;5037541;28;19924;-70
2022/05/14 13:56:04;;;;;;;;;;;20.70;97.20;;;;;;5038571;28;19924;-70
2022/05/14 13:58:31;;;;;;;;;;;20.60;96.00;;;;;;5037524;28;20003;-69
2022/05/14 14:01:02;;;;;;;;;;;20.40;95.70;;;;;;5037238;28;20319;-70
2022/05/14 14:03:49;;;;;;;;;;;20.30;95.90;;;;;;5039089;28;19909;-70
2022/05/14 14:06:16;;;;;;;;;;;20.80;96.10;;;;;;5033730;28;20224;-70
2022/05/14 14:08:42;;;;;;;;;;;20.80;94.50;;;;;;5026921;28;19992;-70
2022/05/14 14:11:07;;;;;;;;;;;20.60;94.80;;;;;;5024845;28;19918;-70
2022/05/14 14:13:33;;;;;;;;;;;20.50;95.40;;;;;;5018733;28;19921;-69
2022/05/14 14:15:58;;;;;;;;;;;20.40;95.30;;;;;;5024436;28;19941;-71
2022/05/14 14:18:24;;;;;;;;;;;20.30;94.70;;;;;;5037120;28;19913;-69
2022/05/14 14:20:51;;;;;;;;;;;20.50;95.00;;;;;;5027559;28;20054;-72
2022/05/14 14:23:19;;;;;;;;;;;20.80;94.50;;;;;;5038221;28;19920;-69
2022/05/14 14:25:45;;;;;;;;;;;21.10;95.40;;;;;;5038385;28;19909;-70
2022/05/14 14:28:11;;;;;;;;;;;21.20;94.70;;;;;;5037947;28;19909;-70
2022/05/14 14:30:37;;;;;;;;;;;21.30;94.90;;;;;;5028721;28;19953;-69
2022/05/14 14:33:03;;;;;;;;;;;21.30;95.30;;;;;;5027418;28;19913;-70
2022/05/14 14:35:29;;;;;;;;;;;21.10;94.10;;;;;;5031940;28;19913;-70
2022/05/14 14:37:55;;;;;;;;;;;21.10;95.90;;;;;;5036646;28;19913;-70
2022/05/14 14:40:21;;;;;;;;;;;21.10;95.30;;;;;;5032400;28;20308;-69
2022/05/14 14:42:47;;;;;;;;;;;21.20;95.20;;;;;;5036515;28;19920;-70
2022/05/14 14:45:13;;;;;;;;;;;21.20;95.00;;;;;;5033812;28;19917;-69
2022/05/14 14:47:44;;;;;;;;;;;21.50;94.50;;;;;;5029245;28;20000;-70
2022/05/14 14:50:10;;;;;;;;;;;21.50;94.50;;;;;;5030387;28;20201;-70